Time;durP1;ratioP1;P1;durP2;ratioP2;P2;SDS_P1;SDS_P2;PMS_P1;PMS_P2;Temp;Humidity;BMP_temperature;BMP_pressure;BME280_temperature;BME280_humidity;BME280_pressure;Samples;Min_cycle;Max_cycle;Signal;HPM_P1;HPM_P2
2021/03/06 00:01:05;;;;;;;2.78;0.68;;;;;;;0.73;47.06;103303.94;5041497;28;20064;-70
2021/03/06 00:03:30;;;;;;;11.13;1.33;;;;;;;0.63;46.88;103318.13;5041114;28;20376;-70
2021/03/06 00:05:56;;;;;;;6.22;1.42;;;;;;;0.54;47.58;103307.44;5038492;28;20041;-69
2021/03/06 00:08:26;;;;;;;9.20;1.48;;;;;;;0.56;47.32;103306.69;5041601;28;20033;-70
2021/03/06 00:10:52;;;;;;;3.03;1.33;;;;;;;0.44;47.10;103312.22;5039635;28;20591;-69
2021/03/06 00:13:18;;;;;;;2.92;1.42;;;;;;;0.31;47.63;103304.81;5040748;28;20482;-70
2021/03/06 00:15:43;;;;;;;5.45;0.93;;;;;;;0.16;47.59;103315.31;5038864;28;20095;-70
2021/03/06 00:18:09;;;;;;;2.92;1.20;;;;;;;0.14;47.45;103314.38;5041004;28;20459;-70
2021/03/06 00:20:34;;;;;;;4.30;0.77;;;;;;;-0.05;47.55;103309.28;5040734;28;20049;-70
2021/03/06 00:23:00;;;;;;;4.95;1.38;;;;;;;-0.01;47.57;103311.19;5043420;28;20581;-70
2021/03/06 00:25:25;;;;;;;5.47;0.93;;;;;;;-0.03;47.74;103320.50;5041509;28;20572;-70
2021/03/06 00:27:51;;;;;;;9.50;1.58;;;;;;;-0.15;47.70;103313.13;5060280;28;20456;-70
2021/03/06 00:30:18;;;;;;;9.25;1.05;;;;;;;-0.28;47.74;103309.16;5043350;28;20377;-70
2021/03/06 00:32:44;;;;;;;1.85;0.45;;;;;;;-0.32;48.32;103312.41;5025721;28;20063;-70
2021/03/06 00:35:11;;;;;;;3.13;0.85;;;;;;;-0.32;48.26;103312.41;5041113;28;20461;-70
2021/03/06 00:37:37;;;;;;;5.60;1.15;;;;;;;-0.27;48.58;103308.34;5041809;28;20072;-70
2021/03/06 00:40:05;;;;;;;8.40;1.92;;;;;;;-0.31;48.81;103311.56;5056493;28;20033;-70
2021/03/06 00:42:31;;;;;;;5.78;0.73;;;;;;;-0.37;48.49;103312.19;5046704;28;20075;-70
2021/03/06 00:44:56;;;;;;;9.63;0.85;;;;;;;-0.41;48.46;103318.00;5040420;28;20041;-70
2021/03/06 00:47:22;;;;;;;5.43;1.00;;;;;;;-0.47;48.70;103309.13;5027567;28;20090;-70
2021/03/06 00:49:47;;;;;;;3.17;0.88;;;;;;;-0.59;49.26;103315.47;5038477;28;20128;-70
2021/03/06 00:52:13;;;;;;;5.10;1.73;;;;;;;-0.61;49.13;103318.81;5041642;28;20075;-69
2021/03/06 00:54:39;;;;;;;5.97;0.93;;;;;;;-0.52;49.36;103318.34;5026447;28;20037;-70
2021/03/06 00:57:05;;;;;;;4.15;0.75;;;;;;;-0.38;49.20;103315.56;5039534;28;20037;-70
2021/03/06 00:59:31;;;;;;;4.07;0.95;;;;;;;-0.23;49.22;103320.50;5023223;28;20036;-70
2021/03/06 01:01:57;;;;;;;2.92;0.68;;;;;;;-0.01;48.90;103322.34;5024126;28;20835;-69
2021/03/06 01:04:22;;;;;;;1.48;0.77;;;;;;;0.10;48.54;103316.75;5042430;28;20040;-69
2021/03/06 01:06:47;;;;;;;4.93;0.85;;;;;;;0.24;48.33;103303.69;5040356;28;20043;-70
2021/03/06 01:09:13;;;;;;;10.25;0.63;;;;;;;0.17;48.75;103317.09;5040458;28;20563;-70
2021/03/06 01:11:39;;;;;;;3.15;0.50;;;;;;;-0.00;48.90;103307.78;5040257;28;20554;-69
2021/03/06 01:14:04;;;;;;;5.28;0.77;;;;;;;0.15;48.69;103303.28;5038695;28;20095;-69
2021/03/06 01:16:30;;;;;;;5.35;0.98;;;;;;;0.18;49.18;103303.41;5041840;28;20033;-70
2021/03/06 01:18:55;;;;;;;3.90;0.65;;;;;;;0.35;48.86;103298.13;5023975;28;20045;-70
2021/03/06 01:21:21;;;;;;;1.10;0.40;;;;;;;0.51;48.61;103297.91;5037749;28;20037;-70
2021/03/06 01:23:47;;;;;;;6.55;1.45;;;;;;;0.53;47.90;103305.72;5018847;28;20052;-70
2021/03/06 01:26:12;;;;;;;3.65;0.50;;;;;;;0.51;48.84;103303.06;5036896;28;20034;-70
2021/03/06 01:28:38;;;;;;;9.80;1.98;;;;;;;0.54;49.18;103297.16;5040425;28;20025;-70
2021/03/06 01:31:03;;;;;;;5.18;0.80;;;;;;;0.37;49.49;103299.06;5052344;28;20551;-70
2021/03/06 01:33:29;;;;;;;6.05;0.77;;;;;;;0.33;49.56;103297.16;5041002;28;20032;-70
2021/03/06 01:35:54;;;;;;;7.60;0.77;;;;;;;0.51;49.68;103292.78;5036154;28;20132;-70
2021/03/06 01:38:20;;;;;;;2.80;0.55;;;;;;;0.47;49.74;103290.88;5035534;28;20767;-70
2021/03/06 01:40:45;;;;;;;6.55;0.93;;;;;;;0.36;49.83;103287.00;5032170;28;20045;-70
2021/03/06 01:43:14;;;;;;;4.05;0.93;;;;;;;0.47;49.69;103290.88;5035477;28;20037;-71
2021/03/06 01:45:40;;;;;;;5.00;0.85;;;;;;;0.62;49.26;103285.50;5038707;28;20040;-70
2021/03/06 01:48:06;;;;;;;7.53;0.65;;;;;;;0.62;49.82;103288.06;5038759;28;20036;-70
2021/03/06 01:50:37;;;;;;;4.35;1.23;;;;;;;0.73;50.13;103283.34;5040999;28;20044;-70
2021/03/06 01:53:05;;;;;;;5.55;1.00;;;;;;;0.82;49.68;103289.72;5037632;28;20037;-70
2021/03/06 01:55:34;;;;;;;2.60;0.43;;;;;;;0.93;49.42;103277.28;5031030;28;20030;-70
2021/03/06 01:58:01;;;;;;;2.03;0.57;;;;;;;0.87;49.72;103274.47;5037320;28;22255;-70
2021/03/06 02:00:26;;;;;;;4.55;0.50;;;;;;;0.80;50.03;103270.78;5037482;28;20106;-69
2021/03/06 02:02:52;;;;;;;1.38;0.70;;;;;;;0.99;49.44;103269.81;5037709;28;20128;-70
2021/03/06 02:05:18;;;;;;;5.60;0.80;;;;;;;1.14;49.25;103260.88;5038038;28;20060;-70
2021/03/06 02:07:45;;;;;;;5.80;0.50;;;;;;;1.12;49.46;103263.38;5039535;28;20054;-70
2021/03/06 02:10:15;;;;;;;3.20;0.38;;;;;;;1.19;49.37;103262.78;5036390;28;20720;-70
2021/03/06 02:12:54;;;;;;;2.38;0.55;;;;;;;1.22;49.18;103262.06;5036000;28;20473;-70
2021/03/06 02:15:43;;;;;;;6.13;0.75;;;;;;;1.17;49.54;103263.56;5032686;28;20105;-69
2021/03/06 02:18:24;;;;;;;1.58;1.02;;;;;;;1.14;49.74;103266.03;5050442;28;20069;-70
2021/03/06 02:20:56;;;;;;;7.53;0.57;;;;;;;1.33;49.63;103260.75;5039044;28;20128;-69
2021/03/06 02:24:02;;;;;;;6.05;0.60;;;;;;;1.27;49.99;103263.09;5042599;28;20033;-69
2021/03/06 02:26:52;;;;;;;3.28;0.40;;;;;;;1.43;49.82;103260.28;5024258;28;20646;-70
2021/03/06 02:29:40;;;;;;;4.75;0.68;;;;;;;1.46;49.80;103268.16;5040008;28;20103;-69
2021/03/06 02:32:10;;;;;;;3.63;0.20;;;;;;;1.40;49.50;103255.03;5039794;28;20043;-69
2021/03/06 02:34:39;;;;;;;3.13;0.30;;;;;;;1.44;49.91;103256.91;5041756;28;20044;-69
2021/03/06 02:37:10;;;;;;;4.40;0.75;;;;;;;1.23;50.46;103261.22;5041825;28;20102;-70
2021/03/06 02:39:42;;;;;;;5.00;0.40;;;;;;;1.32;50.24;103252.13;5041199;28;20061;-69
2021/03/06 02:42:11;;;;;;;9.70;0.55;;;;;;;1.39;50.23;103252.34;5039089;28;20075;-69
2021/03/06 02:44:36;;;;;;;6.43;0.30;;;;;;;1.26;50.37;103256.16;5041851;28;20086;-70
2021/03/06 02:47:03;;;;;;;1.92;0.20;;;;;;;1.44;50.10;103251.75;5039176;28;20028;-69
2021/03/06 02:49:28;;;;;;;5.97;0.20;;;;;;;1.63;49.56;103247.25;5037947;28;20047;-70
2021/03/06 02:51:54;;;;;;;2.67;0.50;;;;;;;1.74;49.34;103253.66;5038979;28;20120;-70
2021/03/06 02:54:20;;;;;;;6.13;0.40;;;;;;;0.98;50.68;103247.41;5038722;28;20040;-70
2021/03/06 02:56:45;;;;;;;2.83;0.20;;;;;;;1.57;50.05;103247.03;5040236;28;20074;-69
2021/03/06 02:59:28;;;;;;;1.77;0.10;;;;;;;1.58;49.88;103246.22;5042298;28;20549;-71
2021/03/06 03:02:08;;;;;;;1.92;0.55;;;;;;;1.33;50.40;103242.72;5040084;28;20447;-70
2021/03/06 03:05:06;;;;;;;2.72;0.32;;;;;;;1.32;50.88;103246.09;5040819;28;20055;-72
2021/03/06 03:07:41;;;;;;;2.95;0.55;;;;;;;1.55;50.28;103253.81;5012044;28;20041;-70
2021/03/06 03:10:12;;;;;;;1.98;0.10;;;;;;;1.41;50.75;103251.63;5041400;28;20114;-70
2021/03/06 03:13:06;;;;;;;10.43;0.30;;;;;;;1.31;50.85;103246.94;5039341;28;20053;-70
2021/03/06 03:15:38;;;;;;;5.05;0.25;;;;;;;1.29;51.60;103253.72;5037718;28;20325;-70
2021/03/06 03:18:05;;;;;;;3.75;0.20;;;;;;;1.40;51.04;103256.72;5027027;28;20272;-70
2021/03/06 03:20:36;;;;;;;8.15;0.30;;;;;;;1.34;51.29;103259.91;5037233;28;20037;-70
2021/03/06 03:23:10;;;;;;;2.75;0.75;;;;;;;1.39;51.29;103252.34;5038326;28;20836;-70
2021/03/06 03:25:40;;;;;;;8.77;1.08;;;;;;;1.62;50.57;103248.09;5039371;28;20040;-70
2021/03/06 03:28:08;;;;;;;4.75;0.50;;;;;;;1.50;50.89;103251.94;5037768;28;20047;-70
2021/03/06 03:30:35;;;;;;;8.57;0.22;;;;;;;1.52;50.70;103249.44;5034980;28;20068;-70
2021/03/06 03:33:04;;;;;;;2.05;0.15;;;;;;;1.65;50.48;103256.78;5038506;28;20063;-70
2021/03/06 03:35:31;;;;;;;10.13;0.20;;;;;;;1.47;50.97;103254.44;5035895;28;20136;-70
2021/03/06 03:37:58;;;;;;;4.25;0.50;;;;;;;1.59;50.70;103253.09;5038215;28;20499;-70
2021/03/06 03:40:25;;;;;;;6.30;0.88;;;;;;;1.57;51.07;103247.03;5023220;28;20040;-70
2021/03/06 03:42:51;;;;;;;1.45;0.20;;;;;;;1.35;51.25;103255.63;5038391;28;20033;-70
2021/03/06 03:45:19;;;;;;;5.50;0.43;;;;;;;1.68;50.76;103253.44;5039063;28;20059;-70
2021/03/06 03:47:45;;;;;;;1.23;0.22;;;;;;;1.45;51.20;103247.47;5037246;28;20123;-71
2021/03/06 03:50:13;;;;;;;6.65;0.43;;;;;;;1.70;50.67;103250.06;5038954;28;20028;-70
2021/03/06 03:52:40;;;;;;;3.38;1.20;;;;;;;1.50;50.87;103262.25;5039401;28;20088;-70
2021/03/06 03:55:07;;;;;;;6.30;0.47;;;;;;;1.63;50.63;103252.41;5039821;28;20295;-70
2021/03/06 03:57:34;;;;;;;9.10;0.30;;;;;;;1.66;50.37;103257.66;5041428;28;20043;-70
2021/03/06 04:00:01;;;;;;;4.90;0.38;;;;;;;1.61;50.62;103260.06;5042172;28;20306;-70
2021/03/06 04:02:28;;;;;;;4.95;0.52;;;;;;;1.62;50.38;103250.66;5040713;28;20558;-70
2021/03/06 04:04:55;;;;;;;5.25;0.25;;;;;;;1.45;50.63;103252.63;5044203;28;20078;-70
2021/03/06 04:07:20;;;;;;;2.92;0.40;;;;;;;1.50;50.57;103246.78;5038959;28;20028;-70
2021/03/06 04:09:46;;;;;;;9.52;0.50;;;;;;;1.44;50.92;103256.91;5042346;28;20366;-70
2021/03/06 04:12:11;;;;;;;2.08;0.35;;;;;;;1.41;51.29;103255.91;5037968;28;20570;-70
2021/03/06 04:14:37;;;;;;;5.47;1.98;;;;;;;1.50;50.93;103253.66;5021873;28;20481;-70
2021/03/06 04:17:02;;;;;;;7.82;1.08;;;;;;;1.43;51.10;103255.13;5038650;28;20041;-70
2021/03/06 04:19:28;;;;;;;5.82;0.40;;;;;;;1.34;51.59;103249.63;5023583;28;20496;-70
2021/03/06 04:21:53;;;;;;;0.82;0.28;;;;;;;1.32;51.74;103251.25;5043965;28;20495;-70
2021/03/06 04:24:19;;;;;;;1.95;0.40;;;;;;;1.35;51.37;103251.38;5043200;28;20056;-70
2021/03/06 04:26:44;;;;;;;3.03;0.43;;;;;;;1.26;51.53;103251.03;5036275;28;20253;-70
2021/03/06 04:29:10;;;;;;;1.45;0.30;;;;;;;1.21;51.68;103247.41;5042374;28;20033;-70
2021/03/06 04:31:35;;;;;;;3.67;0.30;;;;;;;1.14;52.15;103253.16;5043894;28;20044;-71
2021/03/06 04:34:01;;;;;;;1.42;0.40;;;;;;;1.35;51.71;103251.38;5040492;28;20039;-70
2021/03/06 04:36:27;;;;;;;7.22;0.35;;;;;;;1.45;51.45;103255.19;5045950;28;20028;-70
2021/03/06 04:38:52;;;;;;;7.35;0.38;;;;;;;1.10;52.38;103255.63;5042072;28;20045;-70
2021/03/06 04:41:18;;;;;;;1.85;0.30;;;;;;;1.24;52.46;103250.13;5046179;28;20111;-70
2021/03/06 04:43:43;;;;;;;9.25;0.30;;;;;;;1.44;51.82;103251.75;5039403;28;20041;-70
2021/03/06 04:46:09;;;;;;;2.45;0.30;;;;;;;1.56;51.34;103250.44;5041275;28;20051;-71
2021/03/06 04:48:35;;;;;;;5.70;0.50;;;;;;;1.49;51.99;103254.50;5040295;28;20029;-70
2021/03/06 04:51:02;;;;;;;6.30;0.22;;;;;;;1.49;52.13;103255.34;5042241;28;20025;-71
2021/03/06 04:53:28;;;;;;;2.05;0.15;;;;;;;1.50;52.39;103262.25;5040912;28;20082;-70
2021/03/06 04:55:53;;;;;;;5.35;0.40;;;;;;;1.68;51.82;103254.31;5041912;28;20033;-71
2021/03/06 04:58:19;;;;;;;3.58;0.47;;;;;;;1.51;52.05;103248.56;5039249;28;20503;-70
2021/03/06 05:00:44;;;;;;;1.88;0.60;;;;;;;1.27;52.93;103247.63;5042637;28;20040;-71
2021/03/06 05:03:10;;;;;;;11.85;1.00;;;;;;;1.72;51.70;103260.47;5041094;28;20029;-70
2021/03/06 05:05:35;;;;;;;8.85;0.22;;;;;;;1.68;51.76;103254.31;5041131;28;20047;-70
2021/03/06 05:08:02;;;;;;;1.80;0.40;;;;;;;1.61;52.13;103251.47;5040771;28;20047;-70
2021/03/06 05:10:27;;;;;;;5.10;0.50;;;;;;;1.65;51.92;103253.34;5036439;28;20531;-70
2021/03/06 05:12:53;;;;;;;7.40;0.45;;;;;;;1.43;52.88;103256.84;5040230;28;20305;-71
2021/03/06 05:15:18;;;;;;;6.32;0.40;;;;;;;1.59;52.31;103250.53;5042010;28;20091;-70
2021/03/06 05:17:44;;;;;;;4.20;0.20;;;;;;;1.56;52.18;103263.31;5026001;28;20041;-70
2021/03/06 05:20:10;;;;;;;1.27;0.43;;;;;;;1.59;52.81;103260.84;5026469;28;20111;-70
2021/03/06 05:22:35;;;;;;;2.40;0.20;;;;;;;1.38;53.11;103256.63;5036629;28;20119;-70
2021/03/06 05:25:01;;;;;;;1.45;0.22;;;;;;;1.17;53.47;103261.00;5039723;28;20047;-70
2021/03/06 05:27:26;;;;;;;5.35;0.20;;;;;;;1.35;52.71;103260.78;5037703;28;20071;-70
2021/03/06 05:29:53;;;;;;;8.23;0.40;;;;;;;1.39;52.56;103267.81;5028201;28;20507;-70
2021/03/06 05:32:19;;;;;;;1.92;0.60;;;;;;;1.31;52.98;103264.97;5039641;28;20492;-70
2021/03/06 05:34:44;;;;;;;1.20;0.47;;;;;;;1.32;53.20;103267.59;5038800;28;20060;-71
2021/03/06 05:37:10;;;;;;;2.67;0.65;;;;;;;1.31;53.34;103259.81;5040761;28;20452;-70
2021/03/06 05:39:35;;;;;;;2.22;0.40;;;;;;;1.17;53.86;103261.00;5044071;28;20043;-70
2021/03/06 05:42:02;;;;;;;1.50;0.35;;;;;;;1.47;53.29;103266.44;5038624;28;20013;-70
2021/03/06 05:44:28;;;;;;;2.25;0.50;;;;;;;1.44;53.33;103266.31;5041298;28;20033;-69
2021/03/06 05:46:55;;;;;;;9.65;0.90;;;;;;;1.38;53.64;103269.53;5039438;28;20322;-70
2021/03/06 05:49:21;;;;;;;6.90;0.35;;;;;;;1.51;53.42;103268.31;5041469;28;20068;-70
2021/03/06 05:51:48;;;;;;;4.07;0.68;;;;;;;1.34;53.64;103259.91;5039596;28;20036;-70
2021/03/06 05:54:14;;;;;;;6.05;0.50;;;;;;;1.10;54.66;103254.72;5042584;28;20035;-70
2021/03/06 05:56:44;;;;;;;5.32;0.85;;;;;;;1.19;54.54;103261.91;5023719;28;20473;-71
2021/03/06 05:59:12;;;;;;;5.18;0.47;;;;;;;1.25;54.30;103254.44;5040422;28;20028;-69
2021/03/06 06:01:39;;;;;;;4.13;0.50;;;;;;;1.09;55.25;103255.56;5040325;28;20105;-69
2021/03/06 06:04:06;;;;;;;6.57;0.60;;;;;;;1.15;55.37;103260.03;5039161;28;20307;-70
2021/03/06 06:06:32;;;;;;;8.18;0.75;;;;;;;1.04;55.73;103259.66;5037196;28;20435;-70
2021/03/06 06:08:59;;;;;;;3.35;0.90;;;;;;;1.01;56.17;103259.53;5040064;28;20193;-70
2021/03/06 06:11:27;;;;;;;12.38;1.70;;;;;;;1.41;55.29;103266.22;5037963;28;20040;-70
2021/03/06 06:13:55;;;;;;;3.90;0.75;;;;;;;1.58;54.87;103270.28;5036729;28;20072;-71
2021/03/06 06:16:21;;;;;;;4.72;0.93;;;;;;;1.42;55.58;103263.69;5037873;28;20036;-70
2021/03/06 06:18:49;;;;;;;3.10;0.70;;;;;;;1.66;54.89;103273.13;5036876;28;20404;-69
2021/03/06 06:21:47;;;;;;;3.00;0.90;;;;;;;1.70;54.80;103275.00;5038213;28;20283;-71
2021/03/06 06:24:17;;;;;;;6.65;1.10;;;;;;;1.83;54.25;103271.16;5037847;28;20040;-69
2021/03/06 06:26:56;;;;;;;3.97;0.40;;;;;;;1.86;54.03;103278.97;5037406;28;20396;-70
2021/03/06 06:29:45;;;;;;;3.03;0.70;;;;;;;1.94;54.06;103275.84;5038493;28;20098;-72
2021/03/06 06:32:12;;;;;;;6.22;0.73;;;;;;;1.97;54.45;103280.22;5035535;28;20029;-69
2021/03/06 06:34:39;;;;;;;3.63;0.40;;;;;;;2.04;53.90;103279.63;5037452;28;20030;-69
2021/03/06 06:37:13;;;;;;;3.20;0.30;;;;;;;2.06;53.70;103280.53;5023183;28;20114;-71
2021/03/06 06:39:39;;;;;;;3.05;0.30;;;;;;;2.13;53.58;103282.53;5040123;28;20022;-70
2021/03/06 06:42:05;;;;;;;1.58;0.32;;;;;;;2.20;53.31;103287.88;5037875;28;20060;-70
2021/03/06 06:44:32;;;;;;;4.50;0.70;;;;;;;1.75;55.07;103282.88;5038118;28;20025;-70
2021/03/06 06:47:08;;;;;;;1.45;0.30;;;;;;;1.87;54.62;103294.53;5035810;28;20327;-70
2021/03/06 06:49:46;;;;;;;4.07;0.25;;;;;;;1.98;54.73;103291.44;5037330;28;20040;-71
2021/03/06 06:52:12;;;;;;;4.80;0.40;;;;;;;2.18;54.06;103287.84;5037797;28;20038;-70
2021/03/06 06:54:38;;;;;;;6.43;0.70;;;;;;;2.15;54.18;103292.88;5037697;28;20534;-70
2021/03/06 06:57:15;;;;;;;2.50;0.52;;;;;;;2.28;54.06;103292.47;5036323;28;20124;-70
2021/03/06 07:00:09;;;;;;;10.68;0.65;;;;;;;2.26;54.44;103294.13;5038529;28;20038;-70
2021/03/06 07:02:35;;;;;;;2.75;0.73;;;;;;;2.25;53.73;103297.53;5040408;28;20040;-70
2021/03/06 07:05:03;;;;;;;3.28;0.73;;;;;;;2.51;53.86;103301.00;5052747;28;20028;-70
2021/03/06 07:07:40;;;;;;;2.80;0.70;;;;;;;2.48;53.48;103300.88;5038236;28;20270;-70
2021/03/06 07:10:14;;;;;;;7.28;0.93;;;;;;;2.52;52.95;103296.69;5038798;28;20048;-70
2021/03/06 07:12:42;;;;;;;12.93;1.40;;;;;;;2.93;52.55;103287.66;5035796;28;20124;-70
2021/03/06 07:15:22;;;;;;;9.82;0.93;;;;;;;3.52;50.93;103292.88;5039062;28;20040;-70
2021/03/06 07:17:49;;;;;;;8.80;1.02;;;;;;;4.11;48.96;103300.50;5039301;28;20515;-70
2021/03/06 07:20:21;;;;;;;1.10;0.45;;;;;;;5.10;47.06;103298.59;5037884;28;20039;-70
2021/03/06 07:22:55;;;;;;;7.93;1.00;;;;;;;7.09;43.59;103296.03;5052055;28;20107;-69
2021/03/06 07:25:21;;;;;;;3.45;0.50;;;;;;;8.08;39.44;103295.44;5017496;28;20123;-70
2021/03/06 07:27:47;;;;;;;3.33;0.28;;;;;;;8.62;39.92;103292.38;5037369;28;20051;-70
2021/03/06 07:30:15;;;;;;;2.97;0.30;;;;;;;7.75;38.61;103298.56;5035943;28;20029;-71
2021/03/06 07:32:43;;;;;;;2.33;0.60;;;;;;;6.35;41.77;103298.38;5037924;28;20100;-70
2021/03/06 07:35:11;;;;;;;2.90;0.63;;;;;;;5.86;44.55;103299.25;5021272;28;20036;-71
2021/03/06 07:37:38;;;;;;;5.07;0.47;;;;;;;5.13;45.49;103306.41;5038520;28;20712;-70
2021/03/06 07:40:06;;;;;;;5.70;0.45;;;;;;;4.84;46.56;103306.59;5034256;28;20098;-70
2021/03/06 07:42:41;;;;;;;6.28;0.85;;;;;;;4.71;46.90;103311.47;5033411;28;20032;-70
2021/03/06 07:45:08;;;;;;;5.13;0.88;;;;;;;4.59;48.32;103314.66;5019545;28;20036;-70
2021/03/06 07:47:40;;;;;;;1.67;0.45;;;;;;;5.20;47.24;103310.00;5033699;28;20101;-70
2021/03/06 07:50:10;;;;;;;4.63;0.50;;;;;;;6.56;42.63;103318.63;5035592;28;20045;-69
2021/03/06 07:52:37;;;;;;;3.75;0.50;;;;;;;6.75;43.00;103314.59;5035373;28;20128;-70
2021/03/06 07:55:08;;;;;;;4.50;0.40;;;;;;;6.28;43.05;103310.38;5048968;28;20037;-71
2021/03/06 07:58:01;;;;;;;3.20;0.30;;;;;;;6.79;42.17;103309.47;5033210;28;20435;-70
2021/03/06 08:00:38;;;;;;;5.47;0.50;;;;;;;6.36;43.99;103311.38;5035042;28;20067;-70
2021/03/06 08:03:24;;;;;;;3.47;0.70;;;;;;;5.99;44.62;103315.88;5033428;28;20532;-70
2021/03/06 08:06:18;;;;;;;5.10;0.30;;;;;;;5.45;45.52;103321.78;5036107;28;20044;-70
2021/03/06 08:08:46;;;;;;;3.88;0.28;;;;;;;4.93;47.21;103323.25;5021939;28;20608;-69
2021/03/06 08:11:13;;;;;;;4.28;0.68;;;;;;;4.55;48.47;103323.19;5034904;28;20115;-69
2021/03/06 08:13:54;;;;;;;5.85;0.38;;;;;;;4.21;49.14;103327.50;5030120;28;20044;-69
2021/03/06 08:16:22;;;;;;;4.10;0.43;;;;;;;4.32;49.39;103326.06;5033507;28;20086;-70
2021/03/06 08:18:55;;;;;;;3.47;0.20;;;;;;;4.69;49.05;103326.97;5031541;28;20092;-69
2021/03/06 08:21:33;;;;;;;8.18;0.70;;;;;;;4.35;48.95;103335.63;5050080;28;20036;-69
2021/03/06 08:24:22;;;;;;;1.45;0.13;;;;;;;4.78;49.27;103342.72;5032620;28;20103;-69
2021/03/06 08:27:11;;;;;;;6.70;0.82;;;;;;;5.68;46.63;103330.00;5014477;28;20060;-70
2021/03/06 08:29:38;;;;;;;5.05;0.40;;;;;;;6.81;44.21;103325.09;5020448;28;20038;-70
2021/03/06 08:32:13;;;;;;;3.83;0.20;;;;;;;6.92;44.31;103328.72;5035656;28;20068;-70
2021/03/06 08:34:42;;;;;;;2.20;0.30;;;;;;;5.72;45.64;103331.81;5019917;28;20408;-70
2021/03/06 08:37:19;;;;;;;2.40;0.20;;;;;;;5.43;46.40;103328.63;5033272;28;20120;-70
2021/03/06 08:40:05;;;;;;;6.07;0.63;;;;;;;5.43;46.72;103334.69;5033042;28;20052;-71
2021/03/06 08:42:37;;;;;;;4.25;1.35;;;;;;;5.31;46.93;103333.59;5038735;28;20127;-71
2021/03/06 08:45:07;;;;;;;8.48;0.17;;;;;;;6.07;45.42;103329.91;5037085;28;20094;-70
2021/03/06 08:47:37;;;;;;;2.03;1.10;;;;;;;5.56;46.24;103335.84;5036890;28;20032;-70
2021/03/06 08:50:08;;;;;;;4.65;0.30;;;;;;;5.54;46.79;103332.31;5036698;28;20056;-70
2021/03/06 08:52:33;;;;;;;6.82;0.75;;;;;;;4.76;48.56;103339.22;5036785;28;20070;-69
2021/03/06 08:54:59;;;;;;;5.05;0.50;;;;;;;4.82;48.70;103334.19;5035314;28;20041;-71
2021/03/06 08:57:33;;;;;;;16.25;0.90;;;;;;;4.99;48.88;103347.59;5038311;28;20033;-71
2021/03/06 09:00:01;;;;;;;5.93;0.35;;;;;;;4.64;49.85;103344.13;5036243;28;20080;-70
2021/03/06 09:02:27;;;;;;;5.85;0.20;;;;;;;4.00;51.07;103348.50;5038442;28;20036;-70
2021/03/06 09:05:11;;;;;;;4.05;0.20;;;;;;;4.24;50.94;103353.47;5035950;28;20160;-70
2021/03/06 09:07:40;;;;;;;1.77;0.10;;;;;;;4.52;50.30;103344.69;5025903;28;20538;-70
2021/03/06 09:10:24;;;;;;;9.80;0.60;;;;;;;4.58;50.23;103349.16;5040643;28;20043;-70
2021/03/06 09:12:56;;;;;;;7.32;0.30;;;;;;;4.46;50.05;103348.84;5038329;28;20649;-70
2021/03/06 09:15:26;;;;;;;1.15;0.20;;;;;;;4.78;49.69;103358.28;5018239;28;20048;-71
2021/03/06 09:17:51;;;;;;;8.82;0.40;;;;;;;4.64;49.45;103355.34;5032730;28;20045;-70
2021/03/06 09:20:17;;;;;;;7.55;0.55;;;;;;;4.99;49.30;103342.41;5033236;28;20381;-71
2021/03/06 09:22:45;;;;;;;4.93;0.30;;;;;;;4.30;50.32;103348.47;5036184;28;20025;-70
2021/03/06 09:25:12;;;;;;;2.38;0.30;;;;;;;4.56;49.34;103350.81;5033849;28;20067;-69
2021/03/06 09:27:48;;;;;;;0.68;0.10;;;;;;;4.22;48.92;103362.91;5032373;28;20140;-70
2021/03/06 09:30:30;;;;;;;2.13;0.20;;;;;;;3.91;49.58;103356.88;5019244;28;20079;-69
2021/03/06 09:32:56;;;;;;;;;;;;;;;2.93;51.77;103354.81;5037539;28;20801;-70
2021/03/06 09:35:22;;;;;;;2.55;0.05;;;;;;;3.24;51.64;103355.78;5034136;28;19962;-69
2021/03/06 09:38:04;;;;;;;0.20;0.00;;;;;;;3.58;50.63;103367.16;5032852;28;20179;-70
2021/03/06 09:40:40;;;;;;;0.15;0.00;;;;;;;3.78;50.32;103365.13;5037937;28;20052;-70
2021/03/06 09:43:06;;;;;;;2.08;0.15;;;;;;;3.77;49.80;103368.56;5036924;28;20037;-70
2021/03/06 09:45:32;;;;;;;0.70;0.10;;;;;;;3.82;50.36;103369.56;5037119;28;20067;-70
2021/03/06 09:48:03;;;;;;;1.50;0.68;;;;;;;3.94;50.54;103369.03;5034598;28;20029;-70
2021/03/06 09:50:30;;;;;;;0.00;0.00;;;;;;;4.31;49.40;103368.31;5047158;28;20052;-69
2021/03/06 09:52:55;;;;;;;1.65;0.00;;;;;;;4.21;49.24;103363.75;5037257;28;20037;-69
2021/03/06 09:55:21;;;;;;;1.42;0.10;;;;;;;4.48;49.01;103368.78;5035806;28;20029;-70
2021/03/06 09:57:46;;;;;;;0.20;0.10;;;;;;;4.56;48.65;103367.22;5037539;28;20424;-70
2021/03/06 10:00:32;;;;;;;0.13;0.00;;;;;;;4.83;48.72;103372.22;5036798;28;20108;-70
2021/03/06 10:02:57;;;;;;;1.02;0.10;;;;;;;4.64;48.51;103368.31;5039151;28;20508;-70
2021/03/06 10:05:23;;;;;;;3.70;0.30;;;;;;;4.05;49.50;103372.81;5039046;28;20044;-69
2021/03/06 10:07:55;;;;;;;0.60;0.47;;;;;;;4.71;49.17;103371.91;5022400;28;20155;-70
2021/03/06 10:10:25;;;;;;;2.97;0.10;;;;;;;4.79;48.69;103375.59;5036597;28;20036;-69
2021/03/06 10:12:55;;;;;;;4.28;0.47;;;;;;;4.80;48.88;103366.97;5038919;28;20585;-70
2021/03/06 10:15:21;;;;;;;0.60;0.10;;;;;;;4.70;49.46;103367.59;5043181;28;20052;-70
2021/03/06 10:17:47;;;;;;;0.10;0.10;;;;;;;5.24;48.09;103367.16;5038595;28;20049;-70
2021/03/06 10:20:13;;;;;;;0.20;0.20;;;;;;;5.36;48.37;103363.06;5041406;28;20535;-69
2021/03/06 10:22:47;;;;;;;0.57;0.03;;;;;;;5.67;46.47;103365.47;5037431;28;20037;-69
2021/03/06 10:25:25;;;;;;;2.20;0.08;;;;;;;6.29;46.35;103366.69;5040404;28;20045;-69
2021/03/06 10:27:51;;;;;;;2.92;0.10;;;;;;;6.71;44.98;103373.47;5039837;28;20047;-71
2021/03/06 10:30:18;;;;;;;2.92;0.20;;;;;;;6.62;44.02;103370.69;5041121;28;20415;-70
2021/03/06 10:32:48;;;;;;;0.47;0.10;;;;;;;6.69;44.81;103368.22;5036485;28;20530;-70
2021/03/06 10:35:42;;;;;;;4.45;0.25;;;;;;;6.25;44.15;103377.81;5024237;28;20124;-70
2021/03/06 10:38:11;;;;;;;1.52;0.10;;;;;;;6.56;44.18;103370.59;5039524;28;20033;-70
2021/03/06 10:40:41;;;;;;;2.58;0.10;;;;;;;6.99;43.86;103371.28;5040725;28;20090;-70
2021/03/06 10:43:06;;;;;;;3.30;0.30;;;;;;;7.00;42.30;103363.50;5039524;28;20037;-70
2021/03/06 10:45:32;;;;;;;0.22;0.10;;;;;;;7.09;43.87;103362.78;5039991;28;20040;-70
2021/03/06 10:48:00;;;;;;;3.53;0.10;;;;;;;6.81;42.95;103359.75;5035654;28;20040;-70
2021/03/06 10:50:31;;;;;;;1.10;0.20;;;;;;;7.20;43.61;103357.69;5041398;28;20352;-71
2021/03/06 10:53:19;;;;;;;3.55;0.90;;;;;;;7.35;43.17;103364.84;5036346;28;20041;-71
2021/03/06 10:55:46;;;;;;;1.20;0.38;;;;;;;8.06;41.61;103357.03;5034297;28;20674;-72
2021/03/06 10:58:12;;;;;;;4.72;0.82;;;;;;;7.64;42.61;103347.03;5039964;28;20139;-71
2021/03/06 11:00:39;;;;;;;1.27;0.10;;;;;;;6.97;42.20;103344.38;5036781;28;20184;-70
2021/03/06 11:03:08;;;;;;;1.88;0.30;;;;;;;6.83;43.06;103355.44;5052562;28;20559;-70
2021/03/06 11:05:34;;;;;;;4.30;0.85;;;;;;;6.19;44.06;103339.63;5025674;28;20706;-70
2021/03/06 11:08:21;;;;;;;1.65;0.20;;;;;;;6.12;43.61;103342.09;5036580;28;20495;-70
2021/03/06 11:10:49;;;;;;;2.80;0.63;;;;;;;6.16;43.88;103343.91;5035424;28;20051;-70
2021/03/06 11:13:17;;;;;;;0.50;0.10;;;;;;;6.70;43.45;103343.09;5037358;28;20067;-70
2021/03/06 11:15:53;;;;;;;5.25;0.30;;;;;;;7.47;40.84;103342.47;5032218;28;20099;-70
2021/03/06 11:18:20;;;;;;;5.65;0.20;;;;;;;7.27;40.49;103337.00;5036338;28;20044;-70
2021/03/06 11:20:48;;;;;;;1.42;0.20;;;;;;;6.10;42.63;103336.88;5038205;28;20056;-71
2021/03/06 11:23:14;;;;;;;0.77;0.10;;;;;;;5.76;43.61;103337.97;5037717;28;20400;-71
2021/03/06 11:25:40;;;;;;;3.03;0.20;;;;;;;5.89;43.41;103334.75;5037142;28;20037;-71
2021/03/06 11:28:09;;;;;;;3.40;0.30;;;;;;;5.89;43.79;103337.34;5038821;28;20037;-70
2021/03/06 11:30:40;;;;;;;2.60;0.20;;;;;;;5.51;45.25;103337.47;5039292;28;20541;-70
2021/03/06 11:33:08;;;;;;;7.30;0.30;;;;;;;5.94;44.49;103327.91;5054625;28;20059;-70
2021/03/06 11:35:34;;;;;;;2.58;0.30;;;;;;;6.63;43.43;103331.75;5020629;28;20041;-70
2021/03/06 11:38:00;;;;;;;2.05;0.32;;;;;;;6.39;42.40;103331.34;5036133;28;20032;-70
2021/03/06 11:40:31;;;;;;;0.30;0.10;;;;;;;5.95;43.47;103326.19;5039352;28;20411;-70
2021/03/06 11:42:57;;;;;;;0.88;0.43;;;;;;;6.03;44.33;103322.91;5035396;28;20600;-70